Flight Track Log - Related Links

Times and Time Zones

All times are in EST time to prevent confusion due to time zone crossing. See the SKW5543 flight status page for this flight to view local times or setup timezone preferences in your user account.

Time Position Orientation Groundspeed Altitude Reporting Facility
EST Latitude Longitude Course Direction KTS MPH feet Rate Location/Type
Sun 01:32:00 PM 43.5558 -116.1953 232° Southwest 170 196 3,700  Level Salt Lake Center
Sun 01:33:01 PM 43.5283 -116.1225 118° Southeast 229 264 5,600 2,036 Climbing Salt Lake Center
Sun 01:33:52 PM 43.4869 -116.0800 143° Southeast 246 283 7,500 2,300 Climbing Salt Lake Center
Sun 01:34:01 PM 43.4753 -116.0831 191° South 266 306 7,900 2,710 Climbing Salt Lake Center
Sun 01:34:54 PM 43.4419 -116.1539 237° Southwest 256 295 10,300 2,316 Climbing Salt Lake Center
Sun 01:35:00 PM 43.2195 -116.6220 228° Southwest  Level Estimated
Sun 01:35:55 PM 43.3994 -116.2433 237° Southwest 267 307 12,300  Level Salt Lake Center
Sun 01:36:00 PM 43.1331 -116.7211 232° Southwest  Level Estimated
Sun 01:36:57 PM 43.3486 -116.3419 235° Southwest 298 343 14,100  Level Salt Lake Center
Sun 01:37:00 PM 43.0466 -116.8199 232° Southwest  Level Estimated
Sun 01:37:59 PM 43.2883 -116.4267 226° Southwest 320 368 15,900  Level Salt Lake Center
Sun 01:39:00 PM 43.2214 -116.5183 225° Southwest 327 376 17,500 1,463 Climbing Salt Lake Center
Sun 01:40:02 PM 43.1514 -116.6161 226° Southwest 343 395 18,900 1,258 Climbing Salt Lake Center
Sun 01:41:04 PM 43.0814 -116.7119 225° Southwest 352 405 20,100 1,210 Climbing Salt Lake Center
Sun 01:42:06 PM 43.0108 -116.8086 225° Southwest 358 412 21,400 1,171 Climbing Salt Lake Center
Sun 01:43:07 PM 42.9394 -116.9086 226° Southwest 366 421 22,500 1,122 Climbing Salt Lake Center
Sun 01:44:09 PM 42.8669 -117.0067 225° Southwest 368 423 23,700 968 Climbing Salt Lake Center
Sun 01:45:11 PM 42.7939 -117.1064 225° Southwest 372 428 24,500 919 Climbing Salt Lake Center
Sun 01:46:13 PM 42.7044 -117.2267 225° Southwest 377 434 25,600 871 Climbing Salt Lake Center
Sun 01:47:15 PM 42.6292 -117.3278 225° Southwest 382 440 26,300 732 Climbing Salt Lake Center
Sun 01:48:16 PM 42.5522 -117.4294 224° Southwest 386 444 27,100 634 Climbing Salt Lake Center
Sun 01:49:18 PM 42.4761 -117.5322 225° Southwest 386 444 27,600 532 Climbing Salt Lake Center
Sun 01:50:20 PM 42.3975 -117.6364 224° Southwest 394 453 28,200 726 Climbing Salt Lake Center
Sun 01:51:22 PM 42.3192 -117.7417 225° Southwest 399 459 29,100 629 Climbing Salt Lake Center
Sun 01:52:24 PM 42.2419 -117.8431 224° Southwest 390 449 29,500 488 Climbing Salt Lake Center
Sun 01:53:25 PM 42.1472 -117.9694 225° Southwest 396 456 30,100 780 Climbing Salt Lake Center
Sun 01:54:27 PM 42.0717 -118.0689 224° Southwest 398 458 31,100 726 Climbing Salt Lake Center
Sun 01:55:29 PM 41.9978 -118.1642 224° Southwest 388 447 31,600 435 Climbing Salt Lake Center
Sun 01:56:31 PM 41.9114 -118.2778 224° Southwest 389 448 32,000 194 Climbing Salt Lake Center
Sun 01:57:33 PM 41.8353 -118.3769 224° Southwest 395 455 32,000  Level Salt Lake Center
Sun 01:58:35 PM 41.7453 -118.4939 224° Southwest 402 463 32,000  Level Salt Lake Center
Sun 01:59:37 PM 41.6656 -118.5939 223° Southwest 408 470 32,000  Level Salt Lake Center
Sun 02:01:10 PM 41.5342 -118.7647 224° Southwest 415 478 32,000  Level Oakland Center
Sun 02:01:40 PM 41.4939 -118.8164 224° Southwest 414 476 32,000  Level Salt Lake Center
Sun 02:02:42 PM 41.4008 -118.9328 223° Southwest 412 474 32,000  Level Salt Lake Center
Sun 02:03:12 PM 41.3614 -118.9828 224° Southwest 415 478 32,000  Level Oakland Center
Sun 02:03:44 PM 41.3206 -119.0339 223° Southwest 413 475 32,000  Level Salt Lake Center
Sun 02:04:46 PM 41.2278 -119.1519 224° Southwest 413 475 32,000  Level Salt Lake Center
Sun 02:05:48 PM 41.1483 -119.2519 223° Southwest 413 475 32,000  Level Salt Lake Center
Sun 02:06:50 PM 41.0675 -119.3522 223° Southwest 413 475 32,000  Level Salt Lake Center
Sun 02:07:52 PM 40.9847 -119.4581 224° Southwest 413 475 32,000  Level Salt Lake Center
Sun 02:08:53 PM 40.8828 -119.5828 223° Southwest 416 479 32,000  Level Salt Lake Center
Sun 02:09:55 PM 40.7983 -119.6872 223° Southwest 417 480 32,000  Level Salt Lake Center
Sun 02:10:57 PM 40.7142 -119.7919 223° Southwest 416 479 32,000  Level Salt Lake Center
Sun 02:11:59 PM 40.6294 -119.8950 223° Southwest 416 479 32,000 -339 Level Salt Lake Center
Sun 02:13:01 PM 40.5442 -119.9994 223° Southwest 418 481 31,300 -823 Descending Salt Lake Center
Sun 02:14:03 PM 40.4561 -120.1081 223° Southwest 429 494 30,300 -634 Descending Salt Lake Center
Sun 02:15:04 PM 40.3458 -120.2406 223° Southwest 445 512 30,000 -146 Descending Salt Lake Center
Sun 02:16:06 PM 40.2567 -120.3492 223° Southwest 441 507 30,000  Level Salt Lake Center
Sun 02:17:33 PM 40.1300 -120.5019 223° Southwest 428 493 30,000  Level Oakland Center
Sun 02:18:34 PM 40.0433 -120.6058 223° Southwest 424 488 30,000  Level Oakland Center
Sun 02:19:36 PM 39.9642 -120.7019 223° Southwest 424 488 30,000  Level Oakland Center
Sun 02:20:37 PM 39.8817 -120.8067 224° Southwest 417 480 30,000  Level Oakland Center
Sun 02:21:39 PM 39.8608 -120.9494 259° West 401 461 30,000  Level Oakland Center
Sun 02:22:40 PM 39.8417 -121.1186 262° West 395 455 30,000  Level Oakland Center
Sun 02:23:42 PM 39.8278 -121.2458 262° West 398 458 30,000  Level Oakland Center
Sun 02:24:44 PM 39.8122 -121.3878 262° West 396 456 30,000  Level Oakland Center
Sun 02:25:45 PM 39.7947 -121.5583 262° West 397 457 30,000 -439 Level Oakland Center
Sun 02:26:47 PM 39.7792 -121.7028 262° West 401 461 29,100 -927 Descending Oakland Center
Sun 02:27:48 PM 39.7025 -121.8128 228° Southwest 431 496 28,100 -537 Descending Oakland Center
Sun 02:28:50 PM 39.5944 -121.8839 207° Southwest 436 502 28,000 -49 Descending Oakland Center
Sun 02:29:51 PM 39.4786 -121.9628 208° Southwest 436 502 28,000  Level Oakland Center
Sun 02:30:53 PM 39.3706 -122.0342 207° Southwest 437 503 28,000  Level Oakland Center
Sun 02:31:54 PM 39.2636 -122.1050 207° Southwest 434 499 28,000  Level Oakland Center
Sun 02:32:55 PM 39.1625 -122.1722 207° Southwest 416 479 28,000  Level Oakland Center
Sun 02:33:57 PM 39.0603 -122.2381 207° Southwest 412 474 28,000  Level Oakland Center
Sun 02:34:58 PM 38.9558 -122.3053 207° Southwest 419 482 28,000  Level Oakland Center
Sun 02:36:00 PM 38.8503 -122.3744 207° Southwest 426 490 28,000 -195 Level Oakland Center
Sun 02:37:01 PM 38.7431 -122.4447 207° Southwest 432 497 27,600 -1,220 Descending Oakland Center
Sun 02:38:03 PM 38.6289 -122.5175 206° Southwest 435 501 25,500 -2,098 Descending Oakland Center
Sun 02:39:04 PM 38.5253 -122.5850 207° Southwest 422 486 23,300 -2,341 Descending Oakland Center
Sun 02:40:06 PM 38.4100 -122.6586 207° Southwest 390 449 20,700 -2,341 Descending Oakland Center
Sun 02:41:07 PM 38.3128 -122.7200 206° Southwest 392 451 18,500 -2,098 Descending Oakland Center
Sun 02:42:09 PM 38.2183 -122.7800 207° Southwest 386 444 16,400 -1,902 Descending Oakland Center
Sun 02:43:10 PM 38.1239 -122.8408 207° Southwest 385 443 14,600 -1,721 Descending Oakland Center
Sun 02:44:11 PM 38.0244 -122.8067 165° South 390 449 12,900 -1,707 Descending Oakland Center
Sun 02:45:13 PM 37.9444 -122.7228 140° Southeast 380 437 11,100 -976 Descending Oakland Center
Sun 02:46:14 PM 37.8586 -122.6303 140° Southeast 342 394 10,900 -98 Descending Oakland Center
Sun 02:47:15 PM 37.8017 -122.5692 140° Southeast 279 321 10,900  Level Oakland Center
Sun 02:48:17 PM 37.7475 -122.5106 139° Southeast 262 302 10,900 49 Level Oakland Center
Sun 02:49:18 PM 37.7214 -122.4400 115° Southeast 228 262 11,000 -197 Climbing Oakland Center
Sun 02:50:19 PM 37.6956 -122.3725 116° Southeast 216 249 10,500 -800 Descending Oakland Center
Sun 02:51:03 PM 37.6833 -122.3167 105° East 216 249 9,600 -1,212 Descending Northern Cal TRACON
Sun 02:52:03 PM 37.6500 -122.2500 122° Southeast 221 254 8,400 -1,250 Descending Northern Cal TRACON
Sun 02:53:03 PM 37.6333 -122.1833 108° East 201 231 7,100 -1,250 Descending Northern Cal TRACON
Sun 02:54:03 PM 37.6000 -122.1500 142° Southeast 189 217 5,900 -1,632 Descending Northern Cal TRACON
Sun 02:54:57 PM 37.5833 -122.1833 238° Southwest 201 231 4,000 -1,895 Descending Northern Cal TRACON
Sun 02:55:57 PM 37.5833 -122.2667 270° West 192 221 2,300 -1,582 Descending Northern Cal TRACON
Sun 02:56:28 PM 37.5872 -122.2869 284° West 193 222 1,600 -1,174 Descending Oakland Center
Sun 02:57:29 PM 37.6006 -122.3306 291° West 155 178 500 -689 Descending Oakland Center
Sun 02:58:30 PM 37.6178 -122.3697 299° West 149 171 200 -295 Descending Oakland Center

Login

Don't have an account? Register now (free) for customized features, flight alerts, and more!